Time;durP1;ratioP1;P1;durP2;ratioP2;P2;SDS_P1;SDS_P2;PMS_P1;PMS_P2;Temp;Humidity;BMP_temperature;BMP_pressure;BME280_temperature;BME280_humidity;BME280_pressure;Samples;Min_cycle;Max_cycle;Signal;HPM_P1;HPM_P2
2023/09/26 07:13:55;;;;;;;1.23;0.88;;;18.60;99.90;;;;;;6211305;23;20363;-72
2023/09/26 07:16:22;;;;;;;1.70;1.20;;;19.20;99.90;;;;;;6215199;23;20207;-75
2023/09/26 07:18:49;;;;;;;1.65;1.10;;;19.90;99.90;;;;;;6214545;23;20731;-75
2023/09/26 07:21:16;;;;;;;4.07;1.42;;;20.60;99.90;;;;;;6215871;23;20287;-76
2023/09/26 07:23:43;;;;;;;4.47;0.95;;;21.10;99.90;;;;;;6217141;23;20187;-76
2023/09/26 07:26:12;;;;;;;1.35;0.82;;;21.30;99.90;;;;;;6216767;23;20204;-73
2023/09/26 07:28:39;;;;;;;3.13;1.08;;;21.50;99.90;;;;;;6216986;23;20436;-71
2023/09/26 07:31:09;;;;;;;1.95;1.17;;;21.60;99.90;;;;;;6216938;23;20215;-73
2023/09/26 07:33:36;;;;;;;2.75;0.95;;;21.60;99.90;;;;;;6217032;23;20180;-71
2023/09/26 07:36:04;;;;;;;2.03;1.05;;;21.40;99.90;;;;;;6217458;23;20199;-73
2023/09/26 07:38:32;;;;;;;1.30;0.90;;;21.50;99.90;;;;;;6216615;23;20521;-74
2023/09/26 07:40:59;;;;;;;3.53;1.00;;;21.70;99.90;;;;;;6216820;23;20271;-73
2023/09/26 07:43:29;;;;;;;1.63;1.00;;;22.00;99.90;;;;;;6216068;23;20218;-74
2023/09/26 07:45:58;;;;;;;2.20;0.98;;;22.30;99.90;;;;;;6218009;23;20177;-83
2023/09/26 07:48:27;;;;;;;2.05;0.82;;;22.40;99.90;;;;;;6216755;23;20204;-82
2023/09/26 07:50:53;;;;;;;1.27;0.75;;;22.10;99.90;;;;;;6216906;23;20268;-80
2023/09/26 07:53:20;;;;;;;1.33;0.90;;;22.00;99.90;;;;;;6216833;23;20646;-82
2023/09/26 07:55:48;;;;;;;1.98;0.80;;;21.70;99.90;;;;;;6217077;23;20212;-76
2023/09/26 07:58:15;;;;;;;2.65;0.88;;;21.60;99.90;;;;;;6217000;23;20200;-79
2023/09/26 08:00:42;;;;;;;2.55;0.90;;;21.70;99.90;;;;;;6217036;23;20286;-79
2023/09/26 08:03:09;;;;;;;2.17;1.08;;;21.70;99.90;;;;;;6216068;23;20679;-72
2023/09/26 08:05:37;;;;;;;1.60;0.93;;;21.60;99.90;;;;;;6216715;23;20208;-73
2023/09/26 08:08:05;;;;;;;3.72;0.98;;;21.70;99.90;;;;;;6216762;23;20217;-72
2023/09/26 08:10:32;;;;;;;1.33;0.60;;;21.50;99.90;;;;;;6216554;23;20180;-83
2023/09/26 08:12:59;;;;;;;2.30;1.13;;;21.20;99.90;;;;;;6215972;23;20694;-72
2023/09/26 08:15:30;;;;;;;2.75;0.90;;;21.10;99.90;;;;;;6216317;23;20245;-72
2023/09/26 08:17:57;;;;;;;1.42;0.70;;;21.10;99.90;;;;;;6215640;23;20187;-72
2023/09/26 08:20:24;;;;;;;2.80;0.90;;;20.90;99.90;;;;;;6216172;23;20537;-73
2023/09/26 08:22:52;;;;;;;1.40;0.77;;;20.70;99.90;;;;;;6216474;23;20204;-82
2023/09/26 08:25:19;;;;;;;2.85;1.00;;;20.70;99.90;;;;;;6216293;23;20676;-80
2023/09/26 08:27:46;;;;;;;1.40;0.80;;;21.00;99.90;;;;;;6216031;23;20633;-73
2023/09/26 08:30:14;;;;;;;3.80;0.95;;;21.50;99.90;;;;;;6216609;23;20208;-72
2023/09/26 08:32:41;;;;;;;1.90;0.80;;;21.40;99.90;;;;;;6216189;23;20184;-72
2023/09/26 08:35:09;;;;;;;1.92;0.80;;;21.40;99.90;;;;;;6216737;23;20180;-72
2023/09/26 08:37:39;;;;;;;1.30;0.80;;;21.60;99.90;;;;;;6216473;23;20256;-72
2023/09/26 08:40:11;;;;;;;2.00;1.10;;;21.80;99.90;;;;;;6216375;23;20258;-72
2023/09/26 08:42:41;;;;;;;1.45;0.80;;;22.10;99.90;;;;;;6215891;23;20181;-78
2023/09/26 08:45:09;;;;;;;2.33;0.95;;;22.10;99.90;;;;;;6216251;23;20216;-72
2023/09/26 08:47:39;;;;;;;1.95;0.80;;;21.90;99.90;;;;;;6216058;23;20219;-82
2023/09/26 08:50:07;;;;;;;1.75;0.90;;;22.10;99.90;;;;;;6212996;23;20196;-73
2023/09/26 08:52:34;;;;;;;2.22;1.23;;;21.80;99.90;;;;;;6216770;23;20187;-79
2023/09/26 08:55:01;;;;;;;1.27;0.80;;;21.70;99.90;;;;;;6216634;23;20218;-72
2023/09/26 08:57:31;;;;;;;1.60;1.00;;;21.60;99.90;;;;;;6216416;23;20180;-82
2023/09/26 09:00:01;;;;;;;2.33;0.80;;;21.70;99.90;;;;;;6216595;23;20239;-73
2023/09/26 09:02:28;;;;;;;3.13;1.20;;;21.60;99.90;;;;;;6216729;23;20250;-71
2023/09/26 09:04:55;;;;;;;1.95;1.15;;;21.50;99.90;;;;;;6216554;23;20210;-83
2023/09/26 09:07:22;;;;;;;1.70;0.90;;;21.50;99.90;;;;;;6215981;23;20176;-83
2023/09/26 09:10:05;;;;;;;2.13;1.15;;;21.60;99.90;;;;;;6216376;23;20228;-72
2023/09/26 09:12:34;;;;;;;1.92;0.80;;;21.70;99.90;;;;;;6215651;23;20188;-73
2023/09/26 09:15:02;;;;;;;2.33;0.93;;;22.00;99.90;;;;;;6216033;23;20180;-72
2023/09/26 09:17:40;;;;;;;3.88;1.20;;;22.10;99.90;;;;;;6216263;23;20180;-72
2023/09/26 09:20:08;;;;;;;1.70;1.10;;;22.10;99.90;;;;;;6215999;23;20218;-72
2023/09/26 09:22:35;;;;;;;1.85;0.82;;;22.20;99.90;;;;;;6216158;23;20192;-82
2023/09/26 09:25:02;;;;;;;2.03;0.80;;;22.00;99.90;;;;;;6215772;23;20663;-72
2023/09/26 09:27:30;;;;;;;2.20;0.80;;;22.10;99.90;;;;;;6215864;23;20191;-72
2023/09/26 09:30:07;;;;;;;1.52;0.70;;;22.10;99.90;;;;;;6215819;23;20234;-72
2023/09/26 09:32:34;;;;;;;2.22;0.93;;;22.10;99.90;;;;;;6215979;23;20182;-72
2023/09/26 09:35:01;;;;;;;2.13;1.05;;;22.10;99.90;;;;;;6216111;23;20557;-72
2023/09/26 09:37:28;;;;;;;2.13;0.85;;;22.20;99.90;;;;;;6216312;23;20180;-72
2023/09/26 09:39:55;;;;;;;1.77;0.77;;;22.50;99.90;;;;;;6215617;23;20207;-83
2023/09/26 09:42:23;;;;;;;2.30;0.80;;;22.60;99.90;;;;;;6215305;23;20219;-72
2023/09/26 09:44:50;;;;;;;1.77;1.15;;;22.50;99.90;;;;;;6215729;23;20183;-72
2023/09/26 09:47:22;;;;;;;1.35;0.80;;;22.40;99.90;;;;;;6215938;23;20216;-75
2023/09/26 09:49:50;;;;;;;1.77;0.90;;;22.30;99.90;;;;;;6215422;23;20203;-72
2023/09/26 09:52:19;;;;;;;1.65;1.00;;;22.40;99.90;;;;;;6215839;23;20527;-72
2023/09/26 09:54:46;;;;;;;1.77;0.90;;;22.60;99.90;;;;;;6216312;23;20177;-82
2023/09/26 09:57:16;;;;;;;2.50;1.10;;;22.70;99.90;;;;;;6216093;23;20181;-72
2023/09/26 09:59:44;;;;;;;2.00;0.98;;;22.80;99.90;;;;;;6215368;23;20197;-76
2023/09/26 10:02:15;;;;;;;1.10;0.70;;;23.00;99.90;;;;;;6215700;23;20504;-74
2023/09/26 10:04:44;;;;;;;2.42;0.85;;;23.10;99.90;;;;;;6216097;23;20243;-73
2023/09/26 10:07:13;;;;;;;2.60;1.02;;;23.20;99.90;;;;;;6215691;23;20181;-72
2023/09/26 10:09:40;;;;;;;1.70;0.90;;;23.20;99.90;;;;;;6215768;23;20200;-83
2023/09/26 10:12:09;;;;;;;2.28;1.02;;;23.10;99.90;;;;;;6215154;23;20641;-72
2023/09/26 10:14:36;;;;;;;1.42;1.00;;;23.00;99.90;;;;;;6215002;23;20188;-75
2023/09/26 10:17:05;;;;;;;4.45;0.85;;;23.10;99.90;;;;;;6215207;23;20177;-72
2023/09/26 10:19:34;;;;;;;1.65;0.75;;;23.20;99.90;;;;;;6215431;23;20200;-72
2023/09/26 10:22:16;;;;;;;2.53;0.85;;;23.40;99.90;;;;;;6215590;23;20566;-74
2023/09/26 10:24:51;;;;;;;2.67;1.10;;;23.70;99.90;;;;;;6215503;23;20208;-74
2023/09/26 10:27:24;;;;;;;2.20;1.00;;;23.90;99.90;;;;;;6212846;23;20230;-76
2023/09/26 10:29:55;;;;;;;2.08;1.00;;;23.90;99.90;;;;;;6215247;23;20200;-75
2023/09/26 10:32:33;;;;;;;1.83;1.05;;;23.50;99.90;;;;;;6215359;23;20187;-80
2023/09/26 10:35:03;;;;;;;1.90;0.68;;;23.30;99.90;;;;;;6215379;23;20210;-74
2023/09/26 10:37:32;;;;;;;2.72;1.00;;;23.10;99.90;;;;;;6214869;23;20180;-85
2023/09/26 10:39:59;;;;;;;2.40;0.90;;;23.00;99.90;;;;;;6214718;23;20206;-74
2023/09/26 10:42:26;;;;;;;1.70;0.93;;;23.20;99.90;;;;;;6215015;23;20219;-74
2023/09/26 10:44:53;;;;;;;1.75;0.95;;;23.30;99.90;;;;;;6215172;23;20184;-75
2023/09/26 10:47:22;;;;;;;1.85;1.15;;;23.50;99.90;;;;;;6215103;23;20505;-83
2023/09/26 10:49:49;;;;;;;2.28;1.00;;;23.80;99.90;;;;;;6214876;23;20235;-83
2023/09/26 10:52:16;;;;;;;2.08;0.90;;;23.80;99.90;;;;;;6214870;23;20220;-78
2023/09/26 10:54:45;;;;;;;2.28;0.80;;;23.90;99.90;;;;;;6215425;23;20176;-73
2023/09/26 10:57:17;;;;;;;3.15;0.98;;;24.00;99.90;;;;;;6215119;23;20191;-75
2023/09/26 10:59:44;;;;;;;1.55;0.90;;;23.90;99.90;;;;;;6215606;23;20203;-84
2023/09/26 11:02:11;;;;;;;2.70;1.15;;;23.80;99.90;;;;;;6215083;23;20254;-85
2023/09/26 11:04:39;;;;;;;1.88;0.90;;;23.60;99.90;;;;;;6214681;23;20215;-74
2023/09/26 11:07:06;;;;;;;1.80;1.00;;;23.60;99.90;;;;;;6214793;23;20180;-74
2023/09/26 11:09:38;;;;;;;2.20;1.25;;;23.40;99.90;;;;;;6214742;23;20197;-73
2023/09/26 11:12:07;;;;;;;1.65;0.90;;;23.40;99.90;;;;;;6214560;23;20231;-73
2023/09/26 11:14:34;;;;;;;3.22;0.88;;;23.40;99.90;;;;;;6215152;23;20184;-74
2023/09/26 11:17:01;;;;;;;3.05;1.08;;;23.50;99.90;;;;;;6215010;23;20220;-85
2023/09/26 11:19:28;;;;;;;2.75;0.95;;;23.50;99.90;;;;;;6214952;23;20637;-74
2023/09/26 11:21:55;;;;;;;2.65;0.90;;;23.40;99.90;;;;;;6214847;23;20318;-84
2023/09/26 11:24:24;;;;;;;2.20;1.10;;;23.30;99.90;;;;;;6215018;23;20208;-74
2023/09/26 11:26:53;;;;;;;3.20;1.30;;;23.50;99.90;;;;;;6214810;23;20517;-74
2023/09/26 11:29:21;;;;;;;4.63;1.33;;;23.50;99.90;;;;;;6214808;23;20303;-80
2023/09/26 11:31:48;;;;;;;1.67;1.00;;;23.60;99.90;;;;;;6214648;23;20263;-72
2023/09/26 11:34:18;;;;;;;5.68;1.20;;;23.60;99.90;;;;;;6214282;23;20183;-72
2023/09/26 11:36:44;;;;;;;2.80;1.10;;;23.60;99.90;;;;;;6215131;23;20259;-80
2023/09/26 11:39:15;;;;;;;5.60;1.13;;;23.30;99.90;;;;;;6214743;23;20231;-72
2023/09/26 11:41:42;;;;;;;1.98;1.10;;;23.40;99.90;;;;;;6214740;23;20212;-70
2023/09/26 11:44:10;;;;;;;1.92;1.00;;;23.50;99.90;;;;;;6215188;23;20204;-69
2023/09/26 11:46:42;;;;;;;1.98;0.90;;;23.60;99.90;;;;;;6214794;23;20219;-70
2023/09/26 11:49:09;;;;;;;1.90;1.00;;;23.80;99.90;;;;;;6215122;23;20577;-74
2023/09/26 11:51:36;;;;;;;2.30;1.02;;;23.80;99.90;;;;;;6214273;23;20216;-74
2023/09/26 11:54:05;;;;;;;2.67;1.20;;;24.00;99.90;;;;;;6214872;23;20212;-76
2023/09/26 11:56:33;;;;;;;2.67;1.08;;;24.10;99.90;;;;;;6214449;23;20195;-73
2023/09/26 11:59:00;;;;;;;1.33;0.90;;;24.00;99.90;;;;;;6214805;23;20231;-76
2023/09/26 12:01:26;;;;;;;3.97;1.00;;;23.90;99.90;;;;;;6214843;23;20266;-71
2023/09/26 12:03:55;;;;;;;1.63;1.05;;;23.80;99.90;;;;;;6214917;23;20187;-78
2023/09/26 12:06:22;;;;;;;2.08;1.20;;;23.60;99.90;;;;;;6214734;23;20216;-78
2023/09/26 12:08:48;;;;;;;1.55;1.00;;;23.60;99.90;;;;;;6216482;23;20581;-76
2023/09/26 12:11:15;;;;;;;3.05;0.95;;;23.50;99.90;;;;;;6216619;23;20219;-77
2023/09/26 12:13:42;;;;;;;1.15;0.70;;;23.60;99.90;;;;;;6216525;23;20187;-80
2023/09/26 12:16:09;;;;;;;2.58;1.10;;;23.70;99.90;;;;;;6216152;23;20622;-74
2023/09/26 12:18:36;;;;;;;2.92;1.05;;;23.60;99.90;;;;;;6216346;23;20196;-75
2023/09/26 12:21:05;;;;;;;1.73;0.90;;;23.50;99.90;;;;;;6216288;23;20235;-77
2023/09/26 12:23:32;;;;;;;2.83;0.90;;;23.50;99.90;;;;;;6216739;23;20188;-74
2023/09/26 12:25:59;;;;;;;2.08;0.70;;;23.60;99.90;;;;;;6216574;23;20212;-75
2023/09/26 12:28:26;;;;;;;1.27;0.70;;;23.50;99.90;;;;;;6216099;23;20203;-75
2023/09/26 12:30:53;;;;;;;1.40;0.90;;;23.40;99.90;;;;;;6216856;23;20184;-76
2023/09/26 12:33:21;;;;;;;0.90;0.65;;;23.30;99.90;;;;;;6216710;23;20216;-76
2023/09/26 12:35:48;;;;;;;2.85;1.20;;;23.30;99.90;;;;;;6216279;23;20176;-75
2023/09/26 12:38:17;;;;;;;2.00;0.80;;;23.30;99.90;;;;;;6216006;23;20295;-77
2023/09/26 12:40:44;;;;;;;1.17;0.77;;;23.30;99.90;;;;;;6216024;23;20463;-74
2023/09/26 12:43:11;;;;;;;1.00;0.70;;;23.40;99.90;;;;;;6216009;23;20287;-81
2023/09/26 12:45:38;;;;;;;1.30;0.85;;;23.40;99.90;;;;;;6216080;23;20271;-76
2023/09/26 12:48:06;;;;;;;1.73;0.80;;;23.50;99.90;;;;;;6215913;23;20180;-75
2023/09/26 12:50:33;;;;;;;1.08;0.80;;;23.60;99.90;;;;;;6216303;23;20191;-76
2023/09/26 12:53:02;;;;;;;2.28;0.80;;;23.90;99.90;;;;;;6215512;23;20239;-76
2023/09/26 12:55:30;;;;;;;1.65;0.90;;;24.00;99.90;;;;;;6213702;23;20211;-73
2023/09/26 12:57:58;;;;;;;1.48;0.80;;;24.20;99.90;;;;;;6208783;23;20223;-72
2023/09/26 13:00:25;;;;;;;3.25;0.95;;;24.10;99.90;;;;;;6213917;23;20176;-73
2023/09/26 13:02:52;;;;;;;2.05;1.08;;;24.10;99.90;;;;;;6213801;23;20212;-73
2023/09/26 13:05:20;;;;;;;2.67;0.77;;;24.20;99.90;;;;;;6213361;23;20226;-73
2023/09/26 13:07:47;;;;;;;1.42;0.70;;;24.10;99.90;;;;;;6212682;23;20694;-73
2023/09/26 13:10:14;;;;;;;1.13;0.70;;;23.80;99.90;;;;;;6213766;23;20201;-73
2023/09/26 13:12:42;;;;;;;1.45;0.90;;;23.90;99.90;;;;;;6212827;23;20552;-73
2023/09/26 13:15:10;;;;;;;1.30;0.70;;;23.80;99.90;;;;;;6214176;23;20211;-73
2023/09/26 13:17:38;;;;;;;1.70;0.80;;;23.80;99.90;;;;;;6213460;23;20204;-73
2023/09/26 13:20:06;;;;;;;1.80;1.00;;;23.70;99.90;;;;;;6213320;23;20201;-73
2023/09/26 13:22:33;;;;;;;1.20;0.80;;;23.70;99.90;;;;;;6214274;23;20216;-73
2023/09/26 13:25:00;;;;;;;1.58;0.82;;;23.60;99.90;;;;;;6213722;23;20181;-73
2023/09/26 13:27:27;;;;;;;1.30;0.80;;;23.60;99.90;;;;;;6213993;23;20230;-73
2023/09/26 13:29:56;;;;;;;1.55;0.98;;;23.70;99.90;;;;;;6214108;23;20254;-73
2023/09/26 13:32:24;;;;;;;1.33;0.90;;;23.70;99.90;;;;;;6212682;23;20223;-73
2023/09/26 13:34:51;;;;;;;1.60;1.00;;;23.80;99.90;;;;;;6212699;23;20223;-73
2023/09/26 13:37:18;;;;;;;2.30;1.08;;;24.10;99.90;;;;;;6213559;23;20180;-73
2023/09/26 13:39:44;;;;;;;1.55;0.90;;;24.20;99.90;;;;;;6214471;23;20201;-73
2023/09/26 13:42:12;;;;;;;1.75;1.13;;;24.20;99.90;;;;;;6214348;23;20243;-73
2023/09/26 13:44:38;;;;;;;1.15;0.90;;;24.40;99.90;;;;;;6214723;23;20180;-74
2023/09/26 13:47:07;;;;;;;1.80;0.88;;;24.50;99.90;;;;;;6214225;23;20176;-73
2023/09/26 13:49:34;;;;;;;2.28;0.80;;;24.60;99.90;;;;;;6213817;23;20228;-73
2023/09/26 13:52:01;;;;;;;0.80;0.70;;;24.60;99.90;;;;;;6214622;23;20184;-73
2023/09/26 13:54:27;;;;;;;1.58;1.10;;;24.70;99.90;;;;;;6214334;23;20633;-74
2023/09/26 13:56:55;;;;;;;1.58;0.80;;;24.80;99.90;;;;;;6213921;23;20212;-73
2023/09/26 13:59:21;;;;;;;4.07;0.80;;;24.90;99.90;;;;;;6213428;23;20228;-73
2023/09/26 14:01:48;;;;;;;1.25;0.85;;;25.00;99.90;;;;;;6213733;23;20695;-73
2023/09/26 14:04:17;;;;;;;1.70;0.90;;;25.00;99.90;;;;;;6214057;23;20551;-73
2023/09/26 14:06:44;;;;;;;1.38;0.77;;;24.90;99.90;;;;;;6214259;23;20219;-73
2023/09/26 14:09:10;;;;;;;1.77;0.70;;;25.10;99.90;;;;;;6214368;23;20196;-73
2023/09/26 14:11:37;;;;;;;1.85;0.98;;;25.10;99.90;;;;;;6213817;23;20226;-73
2023/09/26 14:14:04;;;;;;;1.20;0.70;;;25.20;99.90;;;;;;6213889;23;20218;-73
2023/09/26 14:16:31;;;;;;;2.70;0.80;;;25.10;99.90;;;;;;6214291;23;20184;-73
2023/09/26 14:18:58;;;;;;;0.93;0.63;;;25.10;99.90;;;;;;6214285;23;20235;-73
2023/09/26 14:21:26;;;;;;;1.35;0.85;;;24.80;99.90;;;;;;6213737;23;20235;-73
2023/09/26 14:23:53;;;;;;;1.52;0.70;;;24.70;99.90;;;;;;6213313;23;20677;-73
2023/09/26 14:26:21;;;;;;;2.33;0.90;;;24.50;99.90;;;;;;6213791;23;20538;-73
2023/09/26 14:28:48;;;;;;;2.80;0.60;;;24.70;99.90;;;;;;6213778;23;20196;-74
2023/09/26 14:31:19;;;;;;;1.23;0.60;;;24.40;99.90;;;;;;6213873;23;20252;-73
2023/09/26 14:33:47;;;;;;;0.90;0.80;;;24.00;99.90;;;;;;6213519;23;20187;-73
2023/09/26 14:36:13;;;;;;;0.95;0.70;;;23.90;99.90;;;;;;6213899;23;20219;-73
2023/09/26 14:38:49;;;;;;;1.08;0.70;;;23.90;99.90;;;;;;6214088;23;20204;-73
2023/09/26 14:41:16;;;;;;;1.00;0.80;;;24.00;99.90;;;;;;6213944;23;20215;-73
2023/09/26 14:43:43;;;;;;;1.92;0.80;;;24.20;99.90;;;;;;6214079;23;20176;-74
2023/09/26 14:46:10;;;;;;;2.10;0.90;;;24.30;99.90;;;;;;6213973;23;20204;-73
2023/09/26 14:48:37;;;;;;;1.60;0.95;;;24.40;99.90;;;;;;6213679;23;20235;-73
2023/09/26 14:51:04;;;;;;;1.42;0.70;;;24.40;99.90;;;;;;6212964;23;20187;-73
2023/09/26 14:53:30;;;;;;;1.30;0.90;;;24.30;99.90;;;;;;6213910;23;20216;-73
2023/09/26 14:55:59;;;;;;;1.83;0.70;;;24.30;99.90;;;;;;6213201;23;20223;-73
2023/09/26 14:58:26;;;;;;;0.88;0.68;;;24.40;99.90;;;;;;6213652;23;20235;-73
2023/09/26 15:00:52;;;;;;;1.98;0.75;;;24.40;99.90;;;;;;6213848;23;20218;-73
2023/09/26 15:03:19;;;;;;;3.42;0.90;;;24.50;99.90;;;;;;6213049;23;20596;-73
2023/09/26 15:05:46;;;;;;;1.40;0.80;;;24.40;99.90;;;;;;6214128;23;20183;-74
2023/09/26 15:08:13;;;;;;;1.10;0.80;;;24.20;99.90;;;;;;6213280;23;20200;-73
2023/09/26 15:10:40;;;;;;;1.27;0.88;;;24.30;99.90;;;;;;6214629;23;20180;-73
2023/09/26 15:13:11;;;;;;;2.78;1.00;;;24.30;99.90;;;;;;6214469;23;20566;-73
2023/09/26 15:15:38;;;;;;;2.10;0.75;;;24.30;99.90;;;;;;6214834;23;20176;-73
2023/09/26 15:18:06;;;;;;;1.55;0.93;;;24.40;99.90;;;;;;6214680;23;20212;-73
2023/09/26 15:20:34;;;;;;;2.35;1.02;;;24.40;99.90;;;;;;6214840;23;20261;-74
2023/09/26 15:23:01;;;;;;;1.25;0.70;;;24.50;99.90;;;;;;6214553;23;20537;-74
2023/09/26 15:25:28;;;;;;;1.73;0.80;;;24.60;99.90;;;;;;6215172;23;20187;-73
2023/09/26 15:27:54;;;;;;;2.30;0.77;;;24.70;99.90;;;;;;6214461;23;20212;-73
2023/09/26 15:30:23;;;;;;;1.00;0.70;;;24.70;99.90;;;;;;6214509;23;20219;-74
2023/09/26 15:32:50;;;;;;;1.50;0.70;;;24.70;99.90;;;;;;6214735;23;20181;-73
2023/09/26 15:35:16;;;;;;;1.63;1.05;;;24.80;99.90;;;;;;6215424;23;20204;-73
2023/09/26 15:37:43;;;;;;;1.20;0.60;;;24.60;99.90;;;;;;6215260;23;20192;-73
2023/09/26 15:40:12;;;;;;;2.47;1.00;;;24.70;99.90;;;;;;6214989;23;20200;-73
2023/09/26 15:42:39;;;;;;;1.25;0.73;;;24.60;99.90;;;;;;6215715;23;20660;-73
2023/09/26 15:45:08;;;;;;;1.80;1.02;;;24.50;99.90;;;;;;6216877;23;20542;-73
2023/09/26 15:47:36;;;;;;;1.30;0.80;;;24.50;99.90;;;;;;6216556;23;20218;-73
2023/09/26 15:50:04;;;;;;;1.30;0.90;;;24.50;99.90;;;;;;6213264;23;20242;-72
2023/09/26 15:52:30;;;;;;;2.97;1.10;;;24.40;99.90;;;;;;6215552;23;20184;-72
2023/09/26 15:54:57;;;;;;;1.88;0.90;;;24.40;99.90;;;;;;6216211;23;20226;-72
2023/09/26 15:57:24;;;;;;;1.50;0.88;;;24.50;99.90;;;;;;6216500;23;20182;-71
2023/09/26 15:59:51;;;;;;;1.67;0.90;;;24.20;99.90;;;;;;6216221;23;20677;-71
2023/09/26 16:02:18;;;;;;;1.58;0.80;;;23.90;99.90;;;;;;6216576;23;20215;-71
2023/09/26 16:04:48;;;;;;;1.23;0.88;;;23.70;99.90;;;;;;6216316;23;20691;-72
2023/09/26 16:07:15;;;;;;;1.55;1.00;;;23.80;99.90;;;;;;6216319;23;20192;-71
2023/09/26 16:09:42;;;;;;;1.75;0.93;;;23.90;99.90;;;;;;6215939;23;20704;-72
2023/09/26 16:12:09;;;;;;;1.48;1.05;;;23.90;99.90;;;;;;6216248;23;20188;-72
2023/09/26 16:14:36;;;;;;;3.47;1.10;;;23.90;99.90;;;;;;6214192;23;20243;-72
2023/09/26 16:17:03;;;;;;;5.80;1.02;;;23.90;99.90;;;;;;6215229;23;20220;-72
2023/09/26 16:19:30;;;;;;;3.67;1.15;;;23.90;99.90;;;;;;6214803;23;20239;-72
2023/09/26 16:21:59;;;;;;;2.35;0.93;;;23.80;99.90;;;;;;6215051;23;20257;-72
2023/09/26 16:24:26;;;;;;;4.05;1.08;;;23.80;99.90;;;;;;6215410;23;20180;-72
2023/09/26 16:26:53;;;;;;;2.03;1.10;;;23.70;99.90;;;;;;6215581;23;20667;-72
2023/09/26 16:29:19;;;;;;;1.92;0.90;;;23.50;99.90;;;;;;6215989;23;20525;-72
2023/09/26 16:31:46;;;;;;;2.17;0.80;;;23.50;99.90;;;;;;6215477;23;20235;-72
2023/09/26 16:34:13;;;;;;;1.65;1.05;;;23.30;99.90;;;;;;6216077;23;20211;-72
2023/09/26 16:36:43;;;;;;;2.00;1.00;;;23.20;99.90;;;;;;6215169;23;21192;-72
2023/09/26 16:39:12;;;;;;;1.50;0.88;;;23.20;99.90;;;;;;6215037;23;20201;-72
2023/09/26 16:41:40;;;;;;;1.25;1.10;;;23.20;99.90;;;;;;6215943;23;20181;-72
2023/09/26 16:44:07;;;;;;;1.75;1.10;;;23.00;99.90;;;;;;6215669;23;20208;-72
2023/09/26 16:46:34;;;;;;;0.98;0.88;;;22.90;99.90;;;;;;6215609;23;20538;-72
2023/09/26 16:49:01;;;;;;;2.72;1.02;;;22.90;99.90;;;;;;6215282;23;20255;-72
2023/09/26 16:51:28;;;;;;;3.20;1.13;;;22.80;99.90;;;;;;6215639;23;20245;-72
2023/09/26 16:53:55;;;;;;;1.67;0.98;;;22.80;99.90;;;;;;6215152;23;20598;-72
2023/09/26 16:56:24;;;;;;;1.45;0.82;;;22.70;99.90;;;;;;6216191;23;20207;-72
2023/09/26 16:58:53;;;;;;;1.30;0.70;;;22.70;99.90;;;;;;6215414;23;20251;-72
2023/09/26 17:01:20;;;;;;;2.08;1.20;;;22.60;99.90;;;;;;6216027;23;20239;-72
2023/09/26 17:03:48;;;;;;;1.83;0.93;;;22.50;99.90;;;;;;6215394;23;20590;-72
2023/09/26 17:06:15;;;;;;;2.60;1.10;;;22.50;99.90;;;;;;6216196;23;20183;-72
2023/09/26 17:08:43;;;;;;;3.15;1.38;;;22.40;99.90;;;;;;6215230;23;20228;-72
2023/09/26 17:11:10;;;;;;;8.25;1.75;;;22.30;99.90;;;;;;6215407;23;20188;-72
2023/09/26 17:13:39;;;;;;;4.28;1.48;;;22.20;99.90;;;;;;6215690;23;20208;-72
2023/09/26 17:16:05;;;;;;;1.52;0.95;;;22.00;99.90;;;;;;6215881;23;20176;-72
2023/09/26 17:18:32;;;;;;;1.77;1.10;;;21.90;99.90;;;;;;6212205;23;20230;-71
2023/09/26 17:20:59;;;;;;;4.53;1.23;;;21.80;99.90;;;;;;6215505;23;20212;-71
2023/09/26 17:23:26;;;;;;;2.72;1.27;;;21.60;99.90;;;;;;6215695;23;20240;-71
2023/09/26 17:25:53;;;;;;;2.05;1.00;;;21.50;99.90;;;;;;6215570;23;20180;-72
2023/09/26 17:28:20;;;;;;;1.83;1.02;;;21.40;99.90;;;;;;6214874;23;20710;-72
2023/09/26 17:30:48;;;;;;;1.52;0.95;;;21.30;99.90;;;;;;6215569;23;20211;-73
2023/09/26 17:33:15;;;;;;;1.52;1.02;;;21.10;99.90;;;;;;6215724;23;20210;-72
2023/09/26 17:35:43;;;;;;;1.60;0.90;;;21.00;99.90;;;;;;6215469;23;20181;-73
2023/09/26 17:38:10;;;;;;;1.40;0.85;;;20.90;99.90;;;;;;6215982;23;20259;-73
2023/09/26 17:40:37;;;;;;;2.03;1.08;;;20.70;99.90;;;;;;6215446;23;20505;-73
2023/09/26 17:43:04;;;;;;;1.77;1.10;;;20.70;99.90;;;;;;6215259;23;20231;-73
2023/09/26 17:45:31;;;;;;;3.25;1.17;;;20.60;99.90;;;;;;6216054;23;20187;-73
2023/09/26 17:47:59;;;;;;;2.25;1.00;;;20.50;99.90;;;;;;6215472;23;20211;-73
2023/09/26 17:50:26;;;;;;;2.72;1.40;;;20.40;99.90;;;;;;6212430;23;20216;-73
2023/09/26 17:52:53;;;;;;;2.65;1.20;;;20.20;99.90;;;;;;6215503;23;20222;-73
2023/09/26 17:55:19;;;;;;;2.67;1.13;;;20.10;99.90;;;;;;6215526;23;20526;-73
2023/09/26 17:57:46;;;;;;;2.92;1.50;;;20.10;99.90;;;;;;6215415;23;20180;-72
2023/09/26 18:00:15;;;;;;;2.78;1.17;;;19.90;99.90;;;;;;6212027;23;20236;-73
2023/09/26 18:02:42;;;;;;;4.13;1.30;;;19.90;99.90;;;;;;6215316;23;20686;-72
2023/09/26 18:05:10;;;;;;;2.03;1.23;;;19.80;99.90;;;;;;6213861;23;20176;-72
2023/09/26 18:07:39;;;;;;;2.38;1.23;;;19.70;99.90;;;;;;6216166;23;20211;-72
2023/09/26 18:10:07;;;;;;;2.60;1.20;;;19.60;99.90;;;;;;6215850;23;20254;-73
2023/09/26 18:12:34;;;;;;;4.43;1.50;;;19.50;99.90;;;;;;6215641;23;20518;-72
2023/09/26 18:15:01;;;;;;;1.92;1.30;;;19.50;99.90;;;;;;6214326;23;20218;-72
2023/09/26 18:17:28;;;;;;;5.00;1.60;;;19.40;99.90;;;;;;6215275;23;20655;-73
2023/09/26 18:19:55;;;;;;;1.73;1.20;;;19.40;99.90;;;;;;6215022;23;20200;-73
2023/09/26 18:22:23;;;;;;;2.95;1.48;;;19.30;99.90;;;;;;6215079;23;20187;-72
2023/09/26 18:24:50;;;;;;;4.90;1.30;;;19.30;99.90;;;;;;6214737;23;20222;-72
2023/09/26 18:27:17;;;;;;;3.47;1.80;;;19.20;99.90;;;;;;6215080;23;20215;-73
2023/09/26 18:29:44;;;;;;;2.85;1.30;;;19.20;99.90;;;;;;6215108;23;20234;-72
2023/09/26 18:32:11;;;;;;;3.10;1.25;;;19.00;99.90;;;;;;6214996;23;20212;-72
2023/09/26 18:34:38;;;;;;;3.05;1.40;;;19.00;99.90;;;;;;6214594;23;20219;-72
2023/09/26 18:37:05;;;;;;;2.55;1.65;;;19.00;99.90;;;;;;6215113;23;20236;-72
2023/09/26 18:39:33;;;;;;;2.78;1.30;;;19.00;99.90;;;;;;6214867;23;20266;-72
2023/09/26 18:42:00;;;;;;;3.47;1.40;;;18.90;99.90;;;;;;6214765;23;20207;-72
2023/09/26 18:44:27;;;;;;;4.80;1.42;;;18.80;99.90;;;;;;6215108;23;20215;-72
2023/09/26 18:46:53;;;;;;;3.47;1.75;;;18.80;99.90;;;;;;6214592;23;20215;-73
2023/09/26 18:49:20;;;;;;;3.55;1.33;;;18.70;99.90;;;;;;6215212;23;20235;-73
2023/09/26 18:51:47;;;;;;;2.90;1.50;;;18.60;99.90;;;;;;6215191;23;20188;-72
2023/09/26 18:54:14;;;;;;;5.05;2.03;;;18.50;99.90;;;;;;6215725;23;20177;-72
2023/09/26 18:56:42;;;;;;;3.38;1.55;;;18.40;99.90;;;;;;6215487;23;20216;-73
2023/09/26 18:59:09;;;;;;;2.92;1.45;;;18.30;99.90;;;;;;6214643;23;20275;-72
2023/09/26 19:01:36;;;;;;;3.00;1.70;;;18.30;99.90;;;;;;6214701;23;20219;-73
2023/09/26 19:04:03;;;;;;;2.75;1.50;;;18.20;99.90;;;;;;6213960;23;20696;-72
2023/09/26 19:06:31;;;;;;;3.50;1.80;;;18.10;99.90;;;;;;6214918;23;20181;-73
2023/09/26 19:08:58;;;;;;;3.45;1.60;;;18.00;99.90;;;;;;6215485;23;20201;-73
2023/09/26 19:11:26;;;;;;;2.38;1.67;;;18.00;99.90;;;;;;6214526;23;20219;-73
2023/09/26 19:13:54;;;;;;;3.00;1.25;;;18.00;99.90;;;;;;6214930;23;20204;-73
2023/09/26 19:16:21;;;;;;;2.28;1.30;;;18.00;99.90;;;;;;6216103;23;20180;-72
2023/09/26 19:18:48;;;;;;;5.18;1.63;;;17.90;99.90;;;;;;6217369;23;20200;-72
2023/09/26 19:21:15;;;;;;;2.10;1.40;;;17.90;99.90;;;;;;6217175;23;20211;-73
2023/09/26 19:23:42;;;;;;;2.38;1.55;;;17.90;99.90;;;;;;6216997;23;20243;-73
2023/09/26 19:26:09;;;;;;;2.65;1.40;;;17.80;99.90;;;;;;6218234;23;20540;-73
2023/09/26 19:28:35;;;;;;;3.42;1.73;;;17.70;99.90;;;;;;6217171;23;20228;-73
2023/09/26 19:31:04;;;;;;;1.90;1.40;;;17.70;99.90;;;;;;6217165;23;20180;-72
2023/09/26 19:33:31;;;;;;;3.22;1.65;;;17.70;99.90;;;;;;6217083;23;20664;-73
2023/09/26 19:35:58;;;;;;;4.20;1.27;;;17.70;99.90;;;;;;6217534;23;20203;-72
2023/09/26 19:38:25;;;;;;;3.67;1.30;;;17.70;99.90;;;;;;6217383;23;20429;-72
2023/09/26 19:40:52;;;;;;;2.97;1.40;;;17.60;99.90;;;;;;6217488;23;20204;-73
2023/09/26 19:43:19;;;;;;;3.30;1.42;;;17.60;99.90;;;;;;6217008;23;20214;-72
2023/09/26 19:45:46;;;;;;;2.35;1.35;;;17.60;99.90;;;;;;6216312;23;20185;-72
2023/09/26 19:48:14;;;;;;;2.30;1.10;;;17.50;99.90;;;;;;6216779;23;20211;-72
2023/09/26 19:50:41;;;;;;;3.17;1.50;;;17.50;99.90;;;;;;6216112;23;20184;-72
2023/09/26 19:53:08;;;;;;;4.40;2.70;;;17.40;99.90;;;;;;6216268;23;20295;-72
2023/09/26 19:55:35;;;;;;;4.80;1.77;;;17.40;99.90;;;;;;6216458;23;20186;-72
2023/09/26 19:58:02;;;;;;;2.72;1.65;;;17.30;99.90;;;;;;6216768;23;20180;-73
2023/09/26 20:00:28;;;;;;;2.25;1.40;;;17.30;99.90;;;;;;6215911;23;20186;-73
2023/09/26 20:02:55;;;;;;;3.23;1.40;;;17.30;99.90;;;;;;6216816;23;20543;-73